createdAt,value
2022-07-28T00:02:25.941Z,98545.97
2022-07-28T00:07:27.891Z,98551.00
2022-07-28T00:12:29.690Z,98550.16
2022-07-28T00:17:32.237Z,98550.16
2022-07-28T00:22:34.128Z,98541.56
2022-07-28T00:27:36.125Z,98545.53
2022-07-28T00:32:38.062Z,98536.56
2022-07-28T00:37:40.213Z,98536.97
2022-07-28T00:42:42.271Z,98539.22
2022-07-28T00:47:44.088Z,98539.94
2022-07-28T00:52:46.379Z,98546.94
2022-07-28T00:57:48.314Z,98536.81
2022-07-28T01:02:50.531Z,98527.41
2022-07-28T01:08:10.527Z,98530.94
2022-07-28T01:13:34.035Z,98527.38
2022-07-28T01:18:35.841Z,98521.69
2022-07-28T01:23:46.481Z,98522.38
2022-07-28T01:28:57.421Z,98521.56
2022-07-28T01:34:05.153Z,98522.72
2022-07-28T01:39:07.104Z,98529.41
2022-07-28T01:44:15.980Z,98527.50
2022-07-28T01:49:21.524Z,98517.75
2022-07-28T01:54:28.515Z,98522.06
2022-07-28T01:59:31.834Z,98520.88
2022-07-28T02:04:37.594Z,98516.09
2022-07-28T02:09:40.680Z,98516.09
2022-07-28T02:14:47.212Z,98512.84
2022-07-28T02:19:50.327Z,98524.94
2022-07-28T02:24:55.054Z,98509.28
2022-07-28T02:30:08.701Z,98517.38
2022-07-28T02:35:49.249Z,98509.63
2022-07-28T02:40:54.852Z,98522.81
2022-07-28T02:46:01.523Z,98522.28
2022-07-28T02:51:05.332Z,98523.94
2022-07-28T02:56:09.259Z,98537.34
2022-07-28T03:01:12.052Z,98538.53
2022-07-28T03:06:16.720Z,98529.47
2022-07-28T03:11:18.680Z,98532.25
2022-07-28T03:16:20.569Z,98536.25
2022-07-28T03:21:25.025Z,98543.66
2022-07-28T03:26:42.307Z,98542.19
2022-07-28T03:31:48.106Z,98555.44
2022-07-28T03:37:00.346Z,98558.72
2022-07-28T03:42:03.744Z,98571.88
2022-07-28T03:47:06.795Z,98569.34
2022-07-28T03:52:08.795Z,98569.28
2022-07-28T03:57:10.983Z,98571.06
2022-07-28T04:02:12.861Z,98570.81
2022-07-28T04:07:14.700Z,98572.88
2022-07-28T04:12:16.503Z,98576.41
2022-07-28T04:17:18.466Z,98564.28
2022-07-28T04:22:20.254Z,98573.63
2022-07-28T04:27:22.091Z,98571.91
2022-07-28T04:32:23.899Z,98575.81
2022-07-28T04:37:27.277Z,98573.44
2022-07-28T04:42:34.755Z,98579.81
2022-07-28T04:47:37.160Z,98585.53
2022-07-28T04:52:40.034Z,98579.47
2022-07-28T04:57:43.574Z,98578.06
2022-07-28T05:02:45.912Z,98568.03
2022-07-28T05:07:48.206Z,98577.50
2022-07-28T05:12:50.609Z,98579.56
2022-07-28T05:17:52.415Z,98582.31
2022-07-28T05:22:54.248Z,98585.50
2022-07-28T05:27:56.324Z,98571.47
2022-07-28T05:33:01.384Z,98576.97
2022-07-28T05:38:06.385Z,98577.78
2022-07-28T05:43:12.245Z,98579.31
2022-07-28T05:48:16.935Z,98576.19
2022-07-28T05:53:19.549Z,98580.84
2022-07-28T05:58:22.312Z,98582.44
2022-07-28T06:03:24.147Z,98585.50
2022-07-28T06:08:26.165Z,98590.88
2022-07-28T06:13:30.906Z,98590.75
2022-07-28T06:18:33.168Z,98594.22
2022-07-28T06:23:35.211Z,98599.13
2022-07-28T06:28:37.114Z,98585.69
2022-07-28T06:33:39.008Z,98592.56
2022-07-28T06:38:40.838Z,98598.31
2022-07-28T06:43:42.766Z,98601.41
2022-07-28T06:48:46.098Z,98598.44
2022-07-28T06:53:48.923Z,98602.31
2022-07-28T06:58:51.446Z,98605.25
2022-07-28T07:03:53.557Z,98602.72
2022-07-28T07:08:55.484Z,98598.59
2022-07-28T07:13:57.809Z,98586.97
2022-07-28T07:18:59.860Z,98593.44
2022-07-28T07:24:11.698Z,98582.19
2022-07-28T07:29:13.898Z,98593.31
2022-07-28T07:34:16.919Z,98595.91
2022-07-28T07:39:19.050Z,98596.78
2022-07-28T07:44:20.896Z,98593.16
2022-07-28T07:49:22.877Z,98599.69
2022-07-28T07:54:24.811Z,98598.81
2022-07-28T07:59:26.685Z,98595.81
2022-07-28T08:04:28.889Z,98592.66
2022-07-28T08:09:31.002Z,98592.69
2022-07-28T08:14:37.034Z,98594.69
2022-07-28T08:19:39.021Z,98589.59
2022-07-28T08:24:40.977Z,98592.25
2022-07-28T08:29:42.884Z,98591.72
2022-07-28T08:34:44.874Z,98590.50
2022-07-28T08:39:46.691Z,98584.56
2022-07-28T08:45:09.087Z,98571.81
2022-07-28T08:50:13.311Z,98573.06
2022-07-28T08:55:19.552Z,98571.81
2022-07-28T09:00:22.669Z,98585.06
2022-07-28T09:05:26.089Z,98570.28
2022-07-28T09:10:28.273Z,98573.88
2022-07-28T09:15:30.248Z,98566.75
2022-07-28T09:20:32.156Z,98566.47
2022-07-28T09:25:34.776Z,98567.81
2022-07-28T09:30:53.644Z,98565.78
2022-07-28T09:35:58.520Z,98559.84
2022-07-28T09:41:03.223Z,98564.41
2022-07-28T09:46:15.772Z,98558.34
2022-07-28T09:51:21.357Z,98552.53
2022-07-28T09:56:25.965Z,98561.25
2022-07-28T10:01:35.149Z,98558.06
2022-07-28T10:06:40.768Z,98549.94
2022-07-28T10:11:42.813Z,98541.66
2022-07-28T10:16:52.863Z,98536.34
2022-07-28T10:22:05.257Z,98527.19
2022-07-28T10:27:08.265Z,98529.09
2022-07-28T10:32:10.084Z,98534.38
2022-07-28T10:37:19.147Z,98504.78
2022-07-28T10:42:21.344Z,98502.19
2022-07-28T10:47:24.518Z,98498.84
2022-07-28T10:52:50.119Z,98502.44
2022-07-28T10:58:25.042Z,98501.03
2022-07-28T11:03:44.310Z,98496.88
2022-07-28T11:08:47.551Z,98501.81
2022-07-28T11:13:50.465Z,98493.16
2022-07-28T11:19:36.440Z,98485.88
2022-07-28T11:24:58.043Z,98479.38
2022-07-28T11:30:00.261Z,98477.69
2022-07-28T11:35:07.650Z,98475.53
2022-07-28T11:40:45.576Z,98468.91
2022-07-28T11:46:11.413Z,98462.66
2022-07-28T11:51:14.619Z,98462.47
2022-07-28T11:56:23.742Z,98445.78
2022-07-28T12:01:25.681Z,98456.22
2022-07-28T12:06:40.345Z,98438.91
2022-07-28T12:11:42.704Z,98447.50
2022-07-28T12:16:49.851Z,98434.50
2022-07-28T12:21:52.925Z,98439.13
2022-07-28T12:26:55.115Z,98425.81
2022-07-28T12:31:59.571Z,98414.75
2022-07-28T12:37:04.214Z,98422.06
2022-07-28T12:42:08.343Z,98414.19
2022-07-28T12:47:12.602Z,98411.47
2022-07-28T12:52:25.060Z,98403.84
2022-07-28T12:57:50.782Z,98408.31
2022-07-28T13:02:56.251Z,98413.25
2022-07-28T13:08:04.928Z,98404.66
2022-07-28T13:13:07.924Z,98389.25
2022-07-28T13:18:09.937Z,98395.34
2022-07-28T13:23:11.816Z,98380.84
2022-07-28T13:28:25.451Z,98366.31
2022-07-28T13:33:27.305Z,98377.59
2022-07-28T13:38:30.226Z,98384.97
2022-07-28T13:43:35.774Z,98376.13
2022-07-28T13:48:58.054Z,98371.50
2022-07-28T13:54:02.040Z,98369.00
2022-07-28T13:59:03.984Z,98362.47
2022-07-28T14:04:14.633Z,98350.31
2022-07-28T14:09:20.985Z,98360.13
2022-07-28T14:14:25.391Z,98355.31
2022-07-28T14:19:38.181Z,98357.63
2022-07-28T14:24:42.041Z,98339.09
2022-07-28T14:29:43.990Z,98348.84
2022-07-28T14:34:45.829Z,98351.03
2022-07-28T14:39:48.042Z,98340.66
2022-07-28T14:44:49.883Z,98339.31
2022-07-28T14:49:57.087Z,98329.88
2022-07-28T14:55:00.284Z,98331.13
2022-07-28T15:00:02.545Z,98317.44
2022-07-28T15:05:05.452Z,98319.47
2022-07-28T15:10:07.695Z,98325.22
2022-07-28T15:15:11.447Z,98319.66
2022-07-28T15:20:13.425Z,98319.66
2022-07-28T15:25:15.293Z,98323.50
2022-07-28T15:30:17.294Z,98321.09
2022-07-28T15:35:20.269Z,98311.19
2022-07-28T15:40:22.405Z,98302.78
2022-07-28T15:45:24.338Z,98306.53
2022-07-28T15:50:26.283Z,98304.78
2022-07-28T15:55:28.119Z,98295.53
2022-07-28T16:00:30.174Z,98298.03
2022-07-28T16:05:32.069Z,98299.91
2022-07-28T16:10:33.966Z,98292.78
2022-07-28T16:15:36.003Z,98286.63
2022-07-28T16:20:38.110Z,98284.41
2022-07-28T16:25:44.801Z,98297.78
2022-07-28T16:30:48.059Z,98283.91
2022-07-28T16:35:53.292Z,98273.63
2022-07-28T16:40:57.212Z,98290.06
2022-07-28T16:46:01.820Z,98284.22
2022-07-28T16:51:03.795Z,98295.59
2022-07-28T16:56:06.820Z,98292.66
2022-07-28T17:01:09.297Z,98291.59
2022-07-28T17:06:11.569Z,98289.03
2022-07-28T17:11:15.229Z,98287.38
2022-07-28T17:16:17.155Z,98297.16
2022-07-28T17:21:20.200Z,98299.28
2022-07-28T17:31:44.521Z,98298.88
2022-07-28T17:36:47.068Z,98303.53
2022-07-28T17:41:48.949Z,98301.28
2022-07-28T17:46:51.373Z,98299.00
2022-07-28T17:51:53.501Z,98297.81
2022-07-28T17:56:56.789Z,98308.63
2022-07-28T18:01:58.797Z,98312.53
2022-07-28T18:07:00.763Z,98303.44
2022-07-28T18:12:03.059Z,98307.78
2022-07-28T18:17:05.220Z,98312.91
2022-07-28T18:22:07.261Z,98305.34
2022-07-28T18:27:10.647Z,98304.13
2022-07-28T18:32:14.486Z,98301.97
2022-07-28T18:37:16.774Z,98299.16
2022-07-28T18:42:19.111Z,98299.59
2022-07-28T18:47:21.299Z,98313.69
2022-07-28T18:52:23.550Z,98304.56
2022-07-28T18:57:25.633Z,98309.66
2022-07-28T19:02:28.083Z,98316.47
2022-07-28T19:07:30.551Z,98322.28
2022-07-28T19:12:34.342Z,98326.59
2022-07-28T19:17:37.193Z,98333.22
2022-07-28T19:22:40.263Z,98333.06
2022-07-28T19:27:42.419Z,98342.59
2022-07-28T19:32:44.557Z,98354.16
2022-07-28T19:37:47.479Z,98353.97
2022-07-28T19:42:49.454Z,98349.88
2022-07-28T19:47:51.440Z,98352.25
2022-07-28T19:52:53.510Z,98363.47
2022-07-28T19:57:56.065Z,98371.25
2022-07-28T20:02:58.372Z,98375.09
2022-07-28T20:08:00.284Z,98373.38
2022-07-28T20:13:17.167Z,98364.81
2022-07-28T20:18:19.426Z,98381.84
2022-07-28T20:23:21.351Z,98382.16
2022-07-28T20:28:23.986Z,98375.06
2022-07-28T20:33:25.802Z,98378.50
2022-07-28T20:38:27.897Z,98377.28
2022-07-28T20:43:37.031Z,98384.38
2022-07-28T20:48:39.415Z,98395.22
2022-07-28T20:53:41.269Z,98382.31
2022-07-28T20:58:43.212Z,98383.44
2022-07-28T21:03:45.353Z,98388.84
2022-07-28T21:08:47.303Z,98385.06
2022-07-28T21:13:49.270Z,98386.16
2022-07-28T21:18:51.163Z,98388.06
2022-07-28T21:23:53.051Z,98388.44
2022-07-28T21:34:15.347Z,98390.50
2022-07-28T21:39:17.537Z,98391.72
2022-07-28T21:44:19.362Z,98396.56
2022-07-28T21:49:21.321Z,98391.56
2022-07-28T21:54:23.212Z,98396.91
2022-07-28T21:59:25.100Z,98399.47
2022-07-28T22:04:26.999Z,98395.50
2022-07-28T22:09:31.098Z,98397.91
2022-07-28T22:14:34.613Z,98401.66
2022-07-28T22:19:36.455Z,98399.03
2022-07-28T22:24:38.692Z,98409.91
2022-07-28T22:29:45.940Z,98419.47
2022-07-28T22:34:53.634Z,98415.22
2022-07-28T22:39:55.497Z,98417.94
2022-07-28T22:44:57.399Z,98411.78
2022-07-28T22:49:59.265Z,98422.19
2022-07-28T22:55:01.091Z,98425.81
2022-07-28T23:00:03.938Z,98416.59
2022-07-28T23:05:06.350Z,98412.28
2022-07-28T23:10:09.506Z,98417.38
2022-07-28T23:15:11.532Z,98431.16
2022-07-28T23:20:13.438Z,98438.09
2022-07-28T23:25:15.260Z,98441.19
2022-07-28T23:30:17.421Z,98438.19
2022-07-28T23:35:19.666Z,98435.44
2022-07-28T23:40:21.605Z,98433.94
2022-07-28T23:45:23.644Z,98431.84
2022-07-28T23:50:26.410Z,98417.19
2022-07-28T23:55:28.263Z,98422.19
